Delta Virtual Airport Information Service

Kotzebue Ralph Wien Memorial Airport

ICAO: PAOT Country: United States
Latitude: 66.8847 Longitude: -162.598
Latest Arrival : ASA155 (B) (PAOM-PAOT) Latest Departure : ASA4663382 (PAOT-PAOM)


WX CaptureLIVE
Data provided by noaa.gov | Fetched at 09:59:16

METAR : PAOT 281353Z AUTO 10003KT 10SM CLR 03/02 A3033

TAF : PAOT 281133Z 2812/2912 VRB03KT P6SM SCT060 FM282000 29008KT P6SM FEW100 FM290600 34008KT P6SM SKC


Runway Data for PAOT
Data provided by openaviationdata.com

Runway ID Mag Var Hdg Length Elevation Surface ILS Freq ILS Id ILS Slope
8 18 83° 5882 ft 11 ft Asphalt 110.7 IOTZ 3
17 18 175° 3786 ft 11 ft Gravel -- -- --
26 18 263° 5882 ft 11 ft Asphalt -- -- --
35 18 355° 3786 ft 11 ft Gravel -- -- --

Kotzebue Ralph Wien Memorial Airport, United States
Use only for reference purposes



Not for navigational purposes.